createdAt,value
2019-04-27T00:01:29.756Z,85.76
2019-04-27T00:05:51.137Z,86.20
2019-04-27T00:10:00.279Z,86.12
2019-04-27T00:14:03.816Z,86.15
2019-04-27T00:18:34.533Z,86.45
2019-04-27T00:22:47.060Z,86.44
2019-04-27T00:26:49.443Z,87.21
2019-04-27T00:30:53.100Z,86.88
2019-04-27T00:34:56.891Z,87.08
2019-04-27T00:39:05.400Z,87.29
2019-04-27T00:43:09.328Z,87.46
2019-04-27T00:47:11.682Z,87.51
2019-04-27T00:51:14.559Z,87.36
2019-04-27T00:55:16.941Z,87.84
2019-04-27T00:59:39.754Z,87.55
2019-04-27T01:04:10.599Z,87.66
2019-04-27T01:08:13.918Z,87.70
2019-04-27T01:12:16.728Z,87.82
2019-04-27T01:16:22.021Z,87.97
2019-04-27T01:20:22.976Z,88.03
2019-04-27T01:24:25.211Z,88.53
2019-04-27T01:28:31.895Z,88.41
2019-04-27T01:32:35.344Z,88.51
2019-04-27T01:36:39.134Z,88.76
2019-04-27T01:40:41.705Z,89.07
2019-04-27T01:44:44.019Z,88.89
2019-04-27T01:48:46.579Z,89.06
2019-04-27T01:52:48.878Z,89.11
2019-04-27T01:56:51.423Z,89.45
2019-04-27T02:01:11.105Z,89.16
2019-04-27T02:05:41.268Z,89.57
2019-04-27T02:09:43.578Z,89.22
2019-04-27T02:13:46.058Z,89.33
2019-04-27T02:17:49.013Z,89.82
2019-04-27T02:21:52.602Z,89.69
2019-04-27T02:25:54.865Z,89.63
2019-04-27T02:30:22.579Z,89.63
2019-04-27T02:34:30.258Z,89.87
2019-04-27T02:38:31.775Z,89.71
2019-04-27T02:42:42.377Z,89.72
2019-04-27T02:46:44.812Z,89.94
2019-04-27T02:50:49.951Z,89.94
2019-04-27T02:54:52.541Z,89.87
2019-04-27T02:58:55.225Z,89.96
2019-04-27T03:03:02.439Z,90.12
2019-04-27T03:07:04.902Z,89.93
2019-04-27T03:11:07.117Z,90.07
2019-04-27T03:15:23.039Z,90.23
2019-04-27T03:19:35.635Z,90.24
2019-04-27T03:23:37.872Z,90.37
2019-04-27T03:27:41.529Z,90.48
2019-04-27T03:31:47.317Z,90.39
2019-04-27T03:35:51.617Z,90.21
2019-04-27T03:39:52.334Z,90.02
2019-04-27T03:43:55.075Z,90.02
2019-04-27T03:48:00.198Z,90.04
2019-04-27T03:52:10.692Z,90.15
2019-04-27T03:56:39.352Z,90.02
2019-04-27T04:00:40.939Z,89.83
2019-04-27T04:04:43.246Z,89.78
2019-04-27T04:08:45.417Z,89.56
2019-04-27T04:13:13.101Z,89.39
2019-04-27T04:17:16.712Z,89.32
2019-04-27T04:21:19.436Z,88.99
2019-04-27T04:25:21.799Z,88.48
2019-04-27T04:29:23.903Z,88.06
2019-04-27T04:33:27.319Z,87.75
2019-04-27T04:37:29.765Z,87.43
2019-04-27T04:41:40.617Z,86.86
2019-04-27T04:45:52.709Z,86.03
2019-04-27T04:50:10.367Z,85.67
2019-04-27T04:53:59.863Z,84.80
2019-04-27T04:58:02.317Z,84.16
2019-04-27T05:02:04.612Z,83.87
2019-04-27T05:06:08.699Z,80.81
2019-04-27T05:10:10.986Z,78.50
2019-04-27T05:14:13.104Z,77.94
2019-04-27T05:18:16.360Z,73.21
2019-04-27T05:22:19.539Z,72.59
2019-04-27T05:26:21.952Z,71.32
2019-04-27T05:30:25.230Z,71.31
2019-04-27T05:34:29.261Z,67.56
2019-04-27T05:38:56.601Z,67.23
2019-04-27T05:43:00.263Z,66.22
2019-04-27T05:47:21.550Z,66.05
2019-04-27T05:51:23.778Z,63.64
2019-04-27T05:55:26.118Z,63.15
2019-04-27T05:59:29.796Z,60.73
2019-04-27T06:03:35.388Z,61.56
2019-04-27T06:07:37.417Z,61.36
2019-04-27T06:11:40.084Z,61.07
2019-04-27T06:15:42.385Z,60.74
2019-04-27T06:19:44.618Z,60.20
2019-04-27T06:23:48.717Z,59.31
2019-04-27T06:27:51.050Z,58.32
2019-04-27T06:31:54.984Z,58.44
2019-04-27T06:35:57.198Z,57.99
2019-04-27T06:39:59.900Z,58.52
2019-04-27T06:44:02.307Z,58.30
2019-04-27T06:48:04.524Z,56.93
2019-04-27T06:52:08.577Z,56.98
2019-04-27T06:56:10.635Z,56.16
2019-04-27T07:00:13.062Z,55.83
2019-04-27T07:04:15.168Z,54.62
2019-04-27T07:08:18.638Z,54.79
2019-04-27T07:12:21.008Z,54.33
2019-04-27T07:16:23.204Z,53.23
2019-04-27T07:20:25.427Z,54.02
2019-04-27T07:24:29.186Z,53.35
2019-04-27T07:28:31.439Z,52.84
2019-04-27T07:32:33.841Z,51.01
2019-04-27T07:36:36.508Z,51.78
2019-04-27T07:40:41.631Z,51.21
2019-04-27T07:44:47.483Z,50.17
2019-04-27T07:48:50.950Z,50.01
2019-04-27T07:52:55.052Z,48.84
2019-04-27T07:56:58.765Z,49.35
2019-04-27T08:01:01.045Z,48.24
2019-04-27T08:05:03.492Z,48.35
2019-04-27T08:09:06.793Z,47.69
2019-04-27T08:13:09.591Z,46.20
2019-04-27T08:17:11.917Z,46.56
2019-04-27T08:21:14.241Z,46.02
2019-04-27T08:25:16.297Z,44.39
2019-04-27T08:29:52.893Z,44.69
2019-04-27T08:33:55.030Z,44.51
2019-04-27T08:37:59.379Z,44.25
2019-04-27T08:42:02.065Z,43.40
2019-04-27T08:46:06.606Z,43.32
2019-04-27T08:50:09.207Z,42.70
2019-04-27T08:54:11.713Z,42.96
2019-04-27T08:58:13.950Z,42.58
2019-04-27T09:02:16.101Z,42.09
2019-04-27T09:06:19.033Z,41.96
2019-04-27T09:10:38.663Z,41.48
2019-04-27T09:14:45.224Z,41.23
2019-04-27T09:18:49.828Z,40.55
2019-04-27T09:22:54.056Z,40.61
2019-04-27T09:26:59.611Z,38.91
2019-04-27T09:31:02.832Z,37.67
2019-04-27T09:35:05.923Z,38.81
2019-04-27T09:39:11.742Z,37.61
2019-04-27T09:43:15.718Z,38.21
2019-04-27T09:47:18.308Z,37.58
2019-04-27T09:51:20.666Z,36.50
2019-04-27T09:55:22.960Z,37.39
2019-04-27T09:59:26.618Z,34.82
2019-04-27T10:03:28.838Z,36.28
2019-04-27T10:07:31.183Z,36.00
2019-04-27T10:11:33.319Z,36.23
2019-04-27T10:15:35.742Z,36.08
2019-04-27T10:19:37.972Z,34.72
2019-04-27T10:23:40.097Z,34.61
2019-04-27T10:27:45.714Z,34.60
2019-04-27T10:31:48.297Z,33.38
2019-04-27T10:35:51.331Z,33.61
2019-04-27T10:39:53.455Z,33.62
2019-04-27T10:43:55.766Z,32.19
2019-04-27T10:47:58.222Z,32.99
2019-04-27T10:52:00.529Z,32.47
2019-04-27T10:56:02.839Z,32.29
2019-04-27T11:00:06.766Z,31.64
2019-04-27T11:04:28.766Z,31.44
2019-04-27T11:08:30.716Z,31.48
2019-04-27T11:12:32.630Z,31.77
2019-04-27T11:16:35.937Z,32.26
2019-04-27T11:20:38.304Z,31.59
2019-04-27T11:24:40.563Z,31.24
2019-04-27T11:28:46.339Z,29.87
2019-04-27T11:32:48.807Z,31.56
2019-04-27T11:37:10.102Z,31.16
2019-04-27T11:41:12.342Z,31.01
2019-04-27T11:45:15.028Z,30.39
2019-04-27T11:49:19.200Z,30.25
2019-04-27T11:53:23.198Z,30.24
2019-04-27T11:57:25.641Z,29.75
2019-04-27T12:01:29.033Z,29.73
2019-04-27T12:05:31.266Z,30.28
2019-04-27T12:09:33.386Z,29.85
2019-04-27T12:13:35.915Z,28.94
2019-04-27T12:17:38.290Z,28.79
2019-04-27T12:21:40.370Z,29.49
2019-04-27T12:25:42.288Z,29.36
2019-04-27T12:30:26.070Z,29.49
2019-04-27T12:34:28.663Z,29.32
2019-04-27T12:38:30.884Z,28.89
2019-04-27T12:42:33.336Z,28.20
2019-04-27T12:46:35.553Z,29.00
2019-04-27T12:50:38.083Z,30.33
2019-04-27T12:54:52.326Z,28.47
2019-04-27T12:58:58.808Z,29.02
2019-04-27T13:03:00.707Z,27.99
2019-04-27T13:07:02.598Z,28.33
2019-04-27T13:11:05.945Z,28.48
2019-04-27T13:15:09.280Z,28.36
2019-04-27T13:19:11.115Z,29.00
2019-04-27T13:23:13.067Z,28.30
2019-04-27T13:27:16.623Z,28.49
2019-04-27T13:31:18.607Z,28.61
2019-04-27T13:35:20.529Z,28.27
2019-04-27T13:39:22.447Z,28.41
2019-04-27T13:43:32.442Z,28.74
2019-04-27T13:48:00.571Z,28.10
2019-04-27T13:52:16.098Z,27.75
2019-04-27T13:56:18.204Z,28.54
2019-04-27T14:00:21.074Z,27.53
2019-04-27T14:04:24.135Z,28.27
2019-04-27T14:08:26.108Z,28.52
2019-04-27T14:12:28.532Z,28.20
2019-04-27T14:16:30.435Z,28.01
2019-04-27T14:20:32.335Z,27.70
2019-04-27T14:24:40.437Z,27.92
2019-04-27T14:28:42.589Z,27.75
2019-04-27T14:32:44.518Z,28.21
2019-04-27T14:36:46.440Z,27.21
2019-04-27T14:40:50.322Z,24.78
2019-04-27T14:44:51.953Z,24.78
2019-04-27T14:48:53.788Z,28.49
2019-04-27T14:52:55.908Z,29.85
2019-04-27T14:56:58.959Z,30.47
2019-04-27T15:01:01.167Z,29.35
2019-04-27T15:05:03.122Z,28.39
2019-04-27T15:09:06.978Z,29.54
2019-04-27T15:13:08.946Z,33.29
2019-04-27T15:17:12.801Z,32.26
2019-04-27T15:21:14.958Z,30.19
2019-04-27T15:25:16.973Z,30.45
2019-04-27T15:29:25.046Z,31.42
2019-04-27T15:33:46.738Z,30.17
2019-04-27T15:37:57.138Z,29.94
2019-04-27T15:42:07.868Z,32.79
2019-04-27T15:46:05.103Z,31.43
2019-04-27T15:50:07.989Z,31.14
2019-04-27T15:54:11.353Z,31.54
2019-04-27T15:58:21.004Z,32.94
2019-04-27T16:02:18.555Z,35.02
2019-04-27T16:06:20.628Z,36.76
2019-04-27T16:10:22.705Z,37.84
2019-04-27T16:14:24.838Z,38.18
2019-04-27T16:18:31.031Z,39.26
2019-04-27T16:22:30.406Z,39.12
2019-04-27T16:26:32.264Z,40.05
2019-04-27T16:30:34.272Z,40.44
2019-04-27T16:34:37.858Z,40.80
2019-04-27T16:38:58.635Z,40.69
2019-04-27T16:43:00.782Z,40.70
2019-04-27T16:47:02.901Z,40.30
2019-04-27T16:51:06.658Z,41.07
2019-04-27T16:55:09.239Z,41.01
2019-04-27T16:59:38.652Z,41.03
2019-04-27T17:03:14.764Z,41.82
2019-04-27T17:07:18.814Z,42.86
2019-04-27T17:11:20.285Z,43.56
2019-04-27T17:15:42.279Z,45.36
2019-04-27T17:19:52.043Z,44.69
2019-04-27T17:23:56.938Z,47.49
2019-04-27T17:28:04.295Z,46.74
2019-04-27T17:32:08.873Z,46.78
2019-04-27T17:36:12.158Z,47.13
2019-04-27T17:40:15.480Z,48.87
2019-04-27T17:44:22.733Z,50.23
2019-04-27T17:48:21.600Z,49.77
2019-04-27T17:52:23.900Z,50.10
2019-04-27T17:56:35.353Z,51.60
2019-04-27T18:00:33.061Z,51.81
2019-04-27T18:04:37.730Z,52.64
2019-04-27T18:08:40.074Z,53.54
2019-04-27T18:12:40.523Z,52.22
2019-04-27T18:16:42.553Z,54.53
2019-04-27T18:20:44.480Z,53.61
2019-04-27T18:25:09.543Z,53.83
2019-04-27T18:29:10.706Z,54.23
2019-04-27T18:33:12.601Z,54.46
2019-04-27T18:37:18.495Z,53.95
2019-04-27T18:41:18.435Z,54.08
2019-04-27T18:45:20.527Z,54.40
2019-04-27T18:49:44.275Z,54.48
2019-04-27T18:53:46.163Z,54.68
2019-04-27T18:57:50.965Z,55.35
2019-04-27T19:01:52.101Z,56.48
2019-04-27T19:05:53.980Z,59.05
2019-04-27T19:09:55.798Z,58.51
2019-04-27T19:13:59.038Z,59.06
2019-04-27T19:18:01.583Z,58.45
2019-04-27T19:22:03.932Z,58.67
2019-04-27T19:26:33.752Z,60.72
2019-04-27T19:30:40.204Z,59.45
2019-04-27T19:34:42.005Z,60.83
2019-04-27T19:38:43.987Z,60.91
2019-04-27T19:42:45.831Z,60.30
2019-04-27T19:46:49.317Z,60.95
2019-04-27T19:50:51.459Z,60.42
2019-04-27T19:54:53.276Z,60.42
2019-04-27T19:58:58.184Z,61.48
2019-04-27T20:03:01.672Z,63.29
2019-04-27T20:07:04.616Z,64.04
2019-04-27T20:11:06.822Z,62.68
2019-04-27T20:15:09.137Z,54.96
2019-04-27T20:19:11.451Z,49.87
2019-04-27T20:23:13.452Z,48.15
2019-04-27T20:27:15.318Z,46.52
2019-04-27T20:31:17.218Z,46.47
2019-04-27T20:35:19.241Z,46.29
2019-04-27T20:39:22.442Z,46.35
2019-04-27T20:43:24.866Z,46.99
2019-04-27T20:47:27.103Z,47.22
2019-04-27T20:51:50.364Z,47.70
2019-04-27T20:55:51.115Z,47.39
2019-04-27T20:59:53.567Z,48.17
2019-04-27T21:03:58.134Z,48.38
2019-04-27T21:08:03.008Z,49.26
2019-04-27T21:12:05.266Z,49.66
2019-04-27T21:16:07.537Z,50.42
2019-04-27T21:20:11.399Z,50.80
2019-04-27T21:24:14.064Z,51.26
2019-04-27T21:28:18.880Z,51.66
2019-04-27T21:32:20.147Z,52.25
2019-04-27T21:36:22.359Z,52.68
2019-04-27T21:40:24.563Z,53.29
2019-04-27T21:44:28.329Z,53.39
2019-04-27T21:48:31.237Z,53.74
2019-04-27T21:52:35.281Z,54.50
2019-04-27T21:56:37.457Z,54.51
2019-04-27T22:00:57.558Z,54.50
2019-04-27T22:05:01.397Z,55.49
2019-04-27T22:09:07.447Z,56.38
2019-04-27T22:13:09.849Z,55.90
2019-04-27T22:17:13.119Z,56.92
2019-04-27T22:21:16.386Z,56.62
2019-04-27T22:25:21.709Z,56.90
2019-04-27T22:29:24.315Z,56.89
2019-04-27T22:33:26.633Z,57.44
2019-04-27T22:37:29.079Z,58.18
2019-04-27T22:41:48.738Z,58.00
2019-04-27T22:45:51.128Z,58.61
2019-04-27T22:49:53.726Z,58.51
2019-04-27T22:53:56.034Z,58.76
2019-04-27T22:58:04.220Z,59.22
2019-04-27T23:02:31.853Z,59.31
2019-04-27T23:06:34.138Z,59.92
2019-04-27T23:10:36.592Z,59.49
2019-04-27T23:14:38.616Z,60.48
2019-04-27T23:18:41.356Z,60.06
2019-04-27T23:22:43.567Z,60.67
2019-04-27T23:26:45.911Z,60.20
2019-04-27T23:31:12.220Z,60.65
2019-04-27T23:35:14.837Z,60.85
2019-04-27T23:39:16.901Z,61.65
2019-04-27T23:43:19.087Z,61.64
2019-04-27T23:47:20.983Z,61.88
2019-04-27T23:51:47.919Z,61.91
2019-04-27T23:55:50.271Z,62.25
2019-04-27T23:59:52.479Z,62.09
